Time;durP1;ratioP1;P1;durP2;ratioP2;P2;SDS_P1;SDS_P2;PMS_P1;PMS_P2;Temp;Humidity;BMP_temperature;BMP_pressure;BME280_temperature;BME280_humidity;BME280_pressure;Samples;Min_cycle;Max_cycle;Signal;HPM_P1;HPM_P2
2022/04/27 00:01:18;;;;;;;6.50;4.20;;;;;;;;;;5057261;28;20041;-43
2022/04/27 00:03:45;;;;;;;6.38;4.32;;;;;;;;;;5057314;28;20025;-40
2022/04/27 00:06:11;;;;;;;5.13;3.97;;;;;;;;;;5057281;28;20029;-41
2022/04/27 00:08:38;;;;;;;12.10;6.72;;;;;;;;;;5057557;28;20100;-41
2022/04/27 00:11:04;;;;;;;6.07;4.38;;;;;;;;;;5057259;28;20021;-43
2022/04/27 00:13:30;;;;;;;24.60;14.75;;;;;;;;;;5057263;28;20032;-41
2022/04/27 00:15:56;;;;;;;8.48;5.25;;;;;;;;;;5057429;28;20036;-43
2022/04/27 00:18:22;;;;;;;6.35;4.40;;;;;;;;;;5056152;28;20079;-42
2022/04/27 00:20:49;;;;;;;9.70;6.43;;;;;;;;;;5056831;28;20067;-43
2022/04/27 00:23:15;;;;;;;8.30;4.88;;;;;;;;;;5056963;28;20028;-42
2022/04/27 00:25:44;;;;;;;18.85;9.48;;;;;;;;;;5057062;28;20025;-40
2022/04/27 00:28:10;;;;;;;12.80;6.22;;;;;;;;;;5056880;28;20058;-42
2022/04/27 00:30:36;;;;;;;16.00;8.10;;;;;;;;;;5057225;28;20503;-43
2022/04/27 00:33:02;;;;;;;25.63;11.27;;;;;;;;;;5057034;28;20029;-41
2022/04/27 00:35:28;;;;;;;25.42;11.55;;;;;;;;;;5056682;28;20026;-41
2022/04/27 00:37:54;;;;;;;16.80;8.25;;;;;;;;;;5056731;28;20025;-41
2022/04/27 00:40:20;;;;;;;25.77;14.43;;;;;;;;;;5056775;28;20021;-41
2022/04/27 00:42:47;;;;;;;20.95;13.23;;;;;;;;;;5056746;28;20114;-43
2022/04/27 00:45:13;;;;;;;30.27;16.23;;;;;;;;;;5056828;28;20021;-40
2022/04/27 00:47:41;;;;;;;18.55;12.70;;;;;;;;;;5056822;28;20033;-42
2022/04/27 00:50:09;;;;;;;23.63;14.63;;;;;;;;;;5056202;28;20508;-43
2022/04/27 00:52:35;;;;;;;13.50;8.32;;;;;;;;;;5056613;28;20060;-42
2022/04/27 00:55:02;;;;;;;28.58;18.60;;;;;;;;;;5056486;28;20086;-42
2022/04/27 00:57:28;;;;;;;23.40;14.73;;;;;;;;;;5056333;28;20028;-42
2022/04/27 00:59:54;;;;;;;14.38;10.60;;;;;;;;;;5056251;28;20065;-43
2022/04/27 01:02:20;;;;;;;17.80;11.02;;;;;;;;;;5056368;28;20033;-42
2022/04/27 01:04:46;;;;;;;24.75;15.73;;;;;;;;;;5056175;28;20393;-41
2022/04/27 01:07:13;;;;;;;15.60;9.38;;;;;;;;;;5056049;28;20538;-41
2022/04/27 01:09:40;;;;;;;16.63;10.63;;;;;;;;;;5055667;28;20028;-43
2022/04/27 01:12:06;;;;;;;14.55;10.20;;;;;;;;;;5056012;28;20029;-41
2022/04/27 01:14:42;;;;;;;16.85;10.63;;;;;;;;;;5056204;28;20445;-44
2022/04/27 01:17:08;;;;;;;12.07;8.05;;;;;;;;;;5055922;28;20082;-44
2022/04/27 01:19:35;;;;;;;13.75;9.60;;;;;;;;;;5055845;28;20021;-40
2022/04/27 01:22:02;;;;;;;17.90;11.45;;;;;;;;;;5055873;28;20041;-42
2022/04/27 01:24:29;;;;;;;10.82;7.25;;;;;;;;;;5055854;28;20025;-41
2022/04/27 01:26:55;;;;;;;18.63;12.43;;;;;;;;;;5054642;28;20511;-41
2022/04/27 01:29:22;;;;;;;14.07;9.30;;;;;;;;;;5055616;28;20028;-42
2022/04/27 01:31:53;;;;;;;12.43;8.40;;;;;;;;;;5055544;28;20465;-41
2022/04/27 01:34:20;;;;;;;10.25;6.68;;;;;;;;;;5055613;28;20408;-42
2022/04/27 01:36:46;;;;;;;7.10;5.10;;;;;;;;;;5055545;28;20380;-42
2022/04/27 01:39:12;;;;;;;9.38;6.50;;;;;;;;;;5055608;28;20083;-41
2022/04/27 01:41:39;;;;;;;8.90;4.90;;;;;;;;;;5055549;28;20113;-41
2022/04/27 01:44:08;;;;;;;8.63;4.95;;;;;;;;;;5055315;28;20078;-41
2022/04/27 01:46:34;;;;;;;5.60;4.05;;;;;;;;;;5055884;28;20108;-43
2022/04/27 01:49:00;;;;;;;6.30;4.20;;;;;;;;;;5055125;28;20045;-42
2022/04/27 01:54:17;;;;;;;13.85;9.25;;;;;;;;;;5055767;28;20032;-44
2022/04/27 01:56:47;;;;;;;16.25;10.38;;;;;;;;;;5055179;28;20035;-41
2022/04/27 01:59:14;;;;;;;8.65;6.22;;;;;;;;;;5055147;28;20076;-41
2022/04/27 02:01:45;;;;;;;10.15;5.32;;;;;;;;;;5055028;28;20044;-42
2022/04/27 02:04:12;;;;;;;9.70;7.00;;;;;;;;;;5055411;28;20021;-42
2022/04/27 02:06:40;;;;;;;8.57;5.78;;;;;;;;;;5055157;28;20071;-42
2022/04/27 02:09:06;;;;;;;8.70;6.38;;;;;;;;;;5055095;28;20020;-41
2022/04/27 02:11:33;;;;;;;10.90;6.57;;;;;;;;;;5054972;28;20422;-48
2022/04/27 02:14:02;;;;;;;6.40;4.80;;;;;;;;;;5054799;28;20535;-43
2022/04/27 02:16:29;;;;;;;8.20;5.05;;;;;;;;;;5055014;28;20020;-42
2022/04/27 02:18:55;;;;;;;6.88;5.03;;;;;;;;;;5054947;28;20068;-42
2022/04/27 02:21:22;;;;;;;7.78;6.10;;;;;;;;;;5054695;28;20045;-42
2022/04/27 02:23:49;;;;;;;11.82;8.07;;;;;;;;;;5054673;28;20021;-44
2022/04/27 02:26:15;;;;;;;10.98;5.90;;;;;;;;;;5054715;28;20033;-43
2022/04/27 02:28:42;;;;;;;14.43;8.25;;;;;;;;;;5054411;28;20095;-43
2022/04/27 02:31:08;;;;;;;11.57;7.85;;;;;;;;;;5054419;28;20029;-44
2022/04/27 02:33:34;;;;;;;9.85;6.97;;;;;;;;;;5054545;28;20078;-43
2022/04/27 02:36:00;;;;;;;8.57;5.93;;;;;;;;;;5054530;28;20413;-43
2022/04/27 02:38:27;;;;;;;13.23;7.90;;;;;;;;;;5054843;28;20163;-42
2022/04/27 02:40:54;;;;;;;8.98;6.20;;;;;;;;;;5054632;28;20050;-43
2022/04/27 02:43:21;;;;;;;8.02;6.10;;;;;;;;;;5054420;28;20147;-43
2022/04/27 02:45:48;;;;;;;7.93;5.22;;;;;;;;;;5054301;28;20028;-43
2022/04/27 02:48:14;;;;;;;9.85;5.13;;;;;;;;;;5052818;28;20078;-43
2022/04/27 02:53:25;;;;;;;7.72;4.72;;;;;;;;;;5054528;28;20040;-42
2022/04/27 02:55:51;;;;;;;6.90;3.58;;;;;;;;;;5054189;28;20032;-40
2022/04/27 02:58:17;;;;;;;6.13;4.13;;;;;;;;;;5053942;28;20455;-44
2022/04/27 03:00:47;;;;;;;5.53;4.10;;;;;;;;;;5053999;28;20049;-42
2022/04/27 03:03:13;;;;;;;7.35;5.40;;;;;;;;;;5054119;28;20400;-42
2022/04/27 03:05:40;;;;;;;7.20;4.95;;;;;;;;;;5054017;28;20017;-42
2022/04/27 03:08:06;;;;;;;7.55;4.40;;;;;;;;;;5053902;28;20059;-42
2022/04/27 03:10:33;;;;;;;5.70;4.22;;;;;;;;;;5053802;28;20049;-43
2022/04/27 03:12:59;;;;;;;6.55;4.72;;;;;;;;;;5053745;28;20028;-43
2022/04/27 03:15:27;;;;;;;5.50;4.35;;;;;;;;;;5053880;28;20029;-41
2022/04/27 03:18:38;;;;;;;7.85;4.78;;;;;;;;;;5053892;28;20051;-41
2022/04/27 03:20:41;;;;;;;9.95;5.97;;;;;;;;;;5049558;28;20037;-40
2022/04/27 03:23:08;;;;;;;8.27;4.90;;;;;;;;;;5053654;28;20025;-40
2022/04/27 03:25:34;;;;;;;6.95;4.63;;;;;;;;;;5053669;28;20029;-41
2022/04/27 03:28:02;;;;;;;6.95;4.78;;;;;;;;;;5053413;28;20017;-40
2022/04/27 03:30:28;;;;;;;6.72;5.38;;;;;;;;;;5053652;28;20499;-44
2022/04/27 03:32:55;;;;;;;8.48;5.18;;;;;;;;;;5053285;28;20088;-41
2022/04/27 03:35:21;;;;;;;7.75;5.20;;;;;;;;;;5054015;28;20021;-41
2022/04/27 03:37:47;;;;;;;5.57;4.47;;;;;;;;;;5053661;28;20013;-44
2022/04/27 03:40:13;;;;;;;17.30;11.55;;;;;;;;;;5053457;28;20075;-41
2022/04/27 03:42:39;;;;;;;28.48;17.50;;;;;;;;;;5053384;28;20090;-41
2022/04/27 03:45:06;;;;;;;17.02;11.18;;;;;;;;;;5053597;28;20028;-41
2022/04/27 03:47:32;;;;;;;5.93;4.75;;;;;;;;;;5053525;28;20078;-41
2022/04/27 03:50:04;;;;;;;8.57;5.00;;;;;;;;;;5052989;28;20060;-41
2022/04/27 03:52:30;;;;;;;;;;;;;;;;;;5053675;28;20475;-39
2022/04/27 03:55:00;;;;;;;10.02;6.85;;;;;;;;;;5053134;28;19904;-41
2022/04/27 03:57:26;;;;;;;11.45;6.75;;;;;;;;;;5053379;28;20380;-41
2022/04/27 03:59:52;;;;;;;29.17;16.63;;;;;;;;;;5053083;28;20021;-42
2022/04/27 04:02:18;;;;;;;13.55;8.02;;;;;;;;;;5053203;28;20041;-42
2022/04/27 04:04:44;;;;;;;18.38;10.95;;;;;;;;;;5053316;28;20028;-40
2022/04/27 04:07:12;;;;;;;11.25;6.40;;;;;;;;;;5053116;28;20469;-42
2022/04/27 04:09:39;;;;;;;12.48;7.80;;;;;;;;;;5053070;28;20029;-41
2022/04/27 04:12:05;;;;;;;13.18;7.50;;;;;;;;;;5053101;28;20029;-47
2022/04/27 04:14:31;;;;;;;9.60;6.30;;;;;;;;;;5053020;28;20021;-43
2022/04/27 04:16:58;;;;;;;7.57;5.72;;;;;;;;;;5053614;28;20090;-43
2022/04/27 04:19:24;;;;;;;11.45;6.57;;;;;;;;;;5053356;28;20021;-44
2022/04/27 04:21:50;;;;;;;8.60;6.03;;;;;;;;;;5052856;28;20382;-44
2022/04/27 04:24:16;;;;;;;10.15;7.32;;;;;;;;;;5052864;28;20067;-43
2022/04/27 04:29:28;;;;;;;9.85;6.15;;;;;;;;;;5053060;28;20032;-42
2022/04/27 04:31:56;;;;;;;11.82;6.97;;;;;;;;;;5052956;28;20025;-42
2022/04/27 04:34:22;;;;;;;10.00;6.35;;;;;;;;;;5053143;28;20025;-42
2022/04/27 04:36:48;;;;;;;13.95;6.07;;;;;;;;;;5052892;28;20021;-41
2022/04/27 04:39:14;;;;;;;20.17;12.23;;;;;;;;;;5052993;28;20025;-44
2022/04/27 04:41:40;;;;;;;10.88;7.05;;;;;;;;;;5052789;28;20037;-42
2022/04/27 04:44:07;;;;;;;13.55;8.60;;;;;;;;;;5052906;28;20040;-44
2022/04/27 04:46:33;;;;;;;15.60;8.80;;;;;;;;;;5055519;28;20037;-43
2022/04/27 04:48:59;;;;;;;18.50;11.18;;;;;;;;;;5056350;28;20029;-43
2022/04/27 04:51:25;;;;;;;16.50;10.50;;;;;;;;;;5056416;28;20044;-42
2022/04/27 04:53:51;;;;;;;15.13;9.63;;;;;;;;;;5056362;28;20519;-41
2022/04/27 04:56:24;;;;;;;22.60;12.82;;;;;;;;;;5056352;28;20040;-43
2022/04/27 04:58:50;;;;;;;12.68;8.60;;;;;;;;;;5055714;28;20071;-42
2022/04/27 05:01:16;;;;;;;23.15;13.90;;;;;;;;;;5056161;28;20059;-42
2022/04/27 05:03:42;;;;;;;18.50;10.80;;;;;;;;;;5055754;28;20100;-44
2022/04/27 05:06:08;;;;;;;15.18;9.65;;;;;;;;;;5055594;28;20473;-42
2022/04/27 05:08:34;;;;;;;15.02;9.25;;;;;;;;;;5055446;28;20027;-43
2022/04/27 05:11:00;;;;;;;17.15;11.88;;;;;;;;;;5056088;28;20425;-43
2022/04/27 05:13:26;;;;;;;17.60;10.48;;;;;;;;;;5056129;28;20048;-42
2022/04/27 05:15:52;;;;;;;22.65;15.32;;;;;;;;;;5056085;28;20029;-42
2022/04/27 05:18:19;;;;;;;22.33;14.68;;;;;;;;;;5056060;28;20052;-44
2022/04/27 05:20:45;;;;;;;24.58;14.05;;;;;;;;;;5056245;28;20076;-43
2022/04/27 05:23:11;;;;;;;56.83;27.05;;;;;;;;;;5055873;28;20037;-44
2022/04/27 05:25:38;;;;;;;53.95;26.48;;;;;;;;;;5055797;28;20021;-43
2022/04/27 05:28:04;;;;;;;29.70;15.60;;;;;;;;;;5055961;28;20032;-42
2022/04/27 05:33:18;;;;;;;59.72;31.25;;;;;;;;;;5056112;28;20396;-43
2022/04/27 05:35:46;;;;;;;51.92;27.60;;;;;;;;;;5055529;28;20062;-42
2022/04/27 05:38:12;;;;;;;51.63;23.63;;;;;;;;;;5055584;28;20032;-43
2022/04/27 05:40:41;;;;;;;32.25;16.98;;;;;;;;;;5055943;28;20064;-42
2022/04/27 05:43:08;;;;;;;30.73;16.65;;;;;;;;;;5055628;28;20039;-42
2022/04/27 05:45:35;;;;;;;21.92;12.85;;;;;;;;;;5055394;28;20484;-42
2022/04/27 05:48:01;;;;;;;20.25;12.60;;;;;;;;;;5055578;28;20053;-42
2022/04/27 05:50:27;;;;;;;16.92;10.98;;;;;;;;;;5054977;28;20055;-41
2022/04/27 05:52:58;;;;;;;21.90;14.80;;;;;;;;;;5055558;28;20032;-42
2022/04/27 05:55:24;;;;;;;20.02;12.73;;;;;;;;;;5055427;28;20035;-42
2022/04/27 05:57:51;;;;;;;15.65;10.50;;;;;;;;;;5055305;28;20029;-42
2022/04/27 06:00:17;;;;;;;14.63;9.98;;;;;;;;;;5055255;28;20529;-41
2022/04/27 06:02:44;;;;;;;17.50;11.77;;;;;;;;;;5055147;28;20076;-41
2022/04/27 06:05:11;;;;;;;16.98;11.38;;;;;;;;;;5054966;28;20013;-42
2022/04/27 06:07:37;;;;;;;17.35;10.50;;;;;;;;;;5055170;28;20034;-42
2022/04/27 06:10:04;;;;;;;21.92;13.57;;;;;;;;;;5054962;28;20025;-41
2022/04/27 06:12:35;;;;;;;13.13;9.13;;;;;;;;;;5054932;28;20028;-42
2022/04/27 06:15:02;;;;;;;12.70;8.18;;;;;;;;;;5054992;28;20461;-42
2022/04/27 06:17:31;;;;;;;12.55;9.05;;;;;;;;;;5055007;28;20033;-42
2022/04/27 06:19:57;;;;;;;11.43;8.93;;;;;;;;;;5054513;28;20029;-42
2022/04/27 06:22:23;;;;;;;10.35;8.18;;;;;;;;;;5054936;28;20036;-42
2022/04/27 06:24:49;;;;;;;11.43;8.57;;;;;;;;;;5054888;28;20053;-43
2022/04/27 06:27:15;;;;;;;10.68;7.15;;;;;;;;;;5054694;28;20392;-43
2022/04/27 06:29:41;;;;;;;11.63;7.43;;;;;;;;;;5054532;28;20025;-43
2022/04/27 06:32:07;;;;;;;11.98;8.25;;;;;;;;;;5053338;28;20028;-42
2022/04/27 06:34:33;;;;;;;14.60;7.97;;;;;;;;;;5054385;28;20021;-43
2022/04/27 06:37:00;;;;;;;10.77;7.70;;;;;;;;;;5054394;28;20060;-43
2022/04/27 06:39:26;;;;;;;10.40;7.40;;;;;;;;;;5054707;28;20511;-42
2022/04/27 06:41:52;;;;;;;11.57;7.60;;;;;;;;;;5054487;28;20091;-42
2022/04/27 06:44:18;;;;;;;10.30;6.68;;;;;;;;;;5054337;28;20028;-43
2022/04/27 06:46:44;;;;;;;11.40;7.60;;;;;;;;;;5054341;28;20036;-38
2022/04/27 06:49:10;;;;;;;11.98;6.90;;;;;;;;;;5054069;28;20045;-43
2022/04/27 06:51:36;;;;;;;12.70;6.70;;;;;;;;;;5054549;28;20040;-48
2022/04/27 06:54:02;;;;;;;12.50;8.18;;;;;;;;;;5054535;28;20028;-46
2022/04/27 06:56:29;;;;;;;15.13;9.85;;;;;;;;;;5054363;28;20079;-45
2022/04/27 06:58:55;;;;;;;15.77;11.18;;;;;;;;;;5054174;28;20029;-45
2022/04/27 07:01:21;;;;;;;16.60;11.52;;;;;;;;;;5054067;28;20503;-44
2022/04/27 07:03:53;;;;;;;20.38;13.93;;;;;;;;;;5054049;28;20028;-43
2022/04/27 07:06:21;;;;;;;37.97;21.73;;;;;;;;;;5054138;28;20028;-44
2022/04/27 07:08:47;;;;;;;20.77;13.40;;;;;;;;;;5053216;28;20033;-44
2022/04/27 07:11:13;;;;;;;20.20;11.10;;;;;;;;;;5054504;28;20112;-44
2022/04/27 07:13:39;;;;;;;15.60;10.63;;;;;;;;;;5053746;28;20021;-43
2022/04/27 07:16:06;;;;;;;14.68;10.23;;;;;;;;;;5053915;28;20112;-44
2022/04/27 07:18:32;;;;;;;12.95;8.77;;;;;;;;;;5053932;28;20021;-44
2022/04/27 07:21:01;;;;;;;25.23;17.55;;;;;;;;;;5053714;28;20543;-46
2022/04/27 07:23:27;;;;;;;16.02;11.30;;;;;;;;;;5053659;28;20043;-44
2022/04/27 07:25:53;;;;;;;26.85;14.27;;;;;;;;;;5053870;28;20055;-44
2022/04/27 07:28:19;;;;;;;14.80;10.27;;;;;;;;;;5053763;28;20053;-45
2022/04/27 07:30:47;;;;;;;13.02;8.73;;;;;;;;;;5053750;28;20028;-43
2022/04/27 07:33:16;;;;;;;20.50;11.95;;;;;;;;;;5053820;28;20028;-46
2022/04/27 07:35:42;;;;;;;12.50;8.23;;;;;;;;;;5053888;28;20029;-45
2022/04/27 07:38:08;;;;;;;39.95;23.60;;;;;;;;;;5053527;28;20473;-45
2022/04/27 07:40:34;;;;;;;35.17;18.75;;;;;;;;;;5053607;28;20033;-45
2022/04/27 07:43:03;;;;;;;53.78;31.35;;;;;;;;;;5053600;28;20060;-44
2022/04/27 07:45:29;;;;;;;31.40;19.90;;;;;;;;;;5053397;28;20017;-43
2022/04/27 07:47:55;;;;;;;51.38;29.73;;;;;;;;;;5053551;28;20028;-46
2022/04/27 07:50:21;;;;;;;36.22;23.05;;;;;;;;;;5052988;28;20072;-44
2022/04/27 07:52:47;;;;;;;49.63;29.08;;;;;;;;;;5053243;28;20021;-44
2022/04/27 07:55:14;;;;;;;33.58;20.73;;;;;;;;;;5053307;28;20115;-44
2022/04/27 07:57:40;;;;;;;20.02;13.52;;;;;;;;;;5053400;28;20036;-44
2022/04/27 08:00:07;;;;;;;28.42;17.10;;;;;;;;;;5053121;28;20041;-45
2022/04/27 08:02:35;;;;;;;33.97;20.30;;;;;;;;;;5053214;28;20045;-44
2022/04/27 08:05:02;;;;;;;56.10;27.40;;;;;;;;;;5053058;28;20100;-45
2022/04/27 08:07:34;;;;;;;35.53;23.35;;;;;;;;;;5053504;28;20021;-44
2022/04/27 08:10:05;;;;;;;83.82;52.50;;;;;;;;;;5053011;28;20474;-44
2022/04/27 08:12:34;;;;;;;15.10;9.48;;;;;;;;;;5053238;28;20389;-46
2022/04/27 08:15:00;;;;;;;27.50;16.38;;;;;;;;;;5052972;28;20025;-46
2022/04/27 08:17:26;;;;;;;11.85;8.95;;;;;;;;;;5053075;28;20376;-46
2022/04/27 08:21:13;;;;;;;10.52;6.45;;;;;;;;;;5054608;28;20103;-47
2022/04/27 08:22:38;;;;;;;16.17;10.07;;;;;;;;;;5056830;28;20055;-44
2022/04/27 08:25:05;;;;;;;12.00;8.80;;;;;;;;;;5057244;28;20021;-44
2022/04/27 08:27:31;;;;;;;11.88;7.47;;;;;;;;;;5057086;28;20029;-45
2022/04/27 08:29:57;;;;;;;10.25;7.38;;;;;;;;;;5057133;28;20109;-45
2022/04/27 08:32:23;;;;;;;17.13;8.95;;;;;;;;;;5056822;28;20053;-47
2022/04/27 08:34:50;;;;;;;9.85;6.90;;;;;;;;;;5057012;28;20021;-45
2022/04/27 08:37:16;;;;;;;13.45;7.40;;;;;;;;;;5057134;28;20024;-50
2022/04/27 08:39:42;;;;;;;14.48;9.32;;;;;;;;;;5056820;28;20032;-46
2022/04/27 08:42:09;;;;;;;28.15;16.33;;;;;;;;;;5056732;28;20033;-46
2022/04/27 08:44:35;;;;;;;13.02;7.78;;;;;;;;;;5055352;28;20025;-45
2022/04/27 08:47:05;;;;;;;15.20;7.35;;;;;;;;;;5027953;28;20596;-45
2022/04/27 08:49:34;;;;;;;32.20;18.90;;;;;;;;;;5024051;28;20041;-44
2022/04/27 08:52:02;;;;;;;17.27;11.57;;;;;;;;;;5024063;28;20051;-45
2022/04/27 08:54:28;;;;;;;18.52;11.40;;;;;;;;;;5023928;28;20385;-44
2022/04/27 08:56:54;;;;;;;21.20;15.15;;;;;;;;;;5033757;28;20493;-44
2022/04/27 08:59:21;;;;;;;18.48;11.20;;;;;;;;;;5022698;28;20059;-45
2022/04/27 09:01:47;;;;;;;17.45;11.20;;;;;;;;;;5025162;28;20033;-44
2022/04/27 09:04:14;;;;;;;10.38;7.57;;;;;;;;;;5023823;28;20464;-44
2022/04/27 09:06:41;;;;;;;13.60;9.50;;;;;;;;;;5025248;28;20422;-47
2022/04/27 09:09:13;;;;;;;18.33;10.57;;;;;;;;;;5023775;28;20035;-44
2022/04/27 09:11:39;;;;;;;13.38;8.07;;;;;;;;;;5023914;28;20520;-44
2022/04/27 09:14:07;;;;;;;14.65;7.50;;;;;;;;;;5060985;28;20464;-48
2022/04/27 09:22:27;;;;;;;9.15;6.40;;;;;;;;;;5076667;28;20403;-44
2022/04/27 09:24:54;;;;;;;12.80;8.00;;;;;;;;;;5075680;28;20028;-44
2022/04/27 09:27:20;;;;;;;15.68;11.30;;;;;;;;;;5075202;28;20047;-42
2022/04/27 09:30:11;;;;;;;19.65;11.95;;;;;;;;;;5065903;28;20025;-42
2022/04/27 09:32:37;;;;;;;14.35;9.13;;;;;;;;;;5054902;28;20100;-46
2022/04/27 09:35:08;;;;;;;15.55;10.27;;;;;;;;;;5056061;28;20021;-47
2022/04/27 09:37:42;;;;;;;13.48;10.25;;;;;;;;;;5055562;28;20047;-45
2022/04/27 09:40:11;;;;;;;10.13;8.57;;;;;;;;;;5055704;28;20053;-44
2022/04/27 09:42:38;;;;;;;11.27;7.68;;;;;;;;;;5055375;28;20033;-45
2022/04/27 09:45:15;;;;;;;11.02;8.60;;;;;;;;;;5055659;28;20017;-44
2022/04/27 09:47:45;;;;;;;12.70;9.02;;;;;;;;;;5055366;28;20465;-45
2022/04/27 09:50:12;;;;;;;15.23;8.07;;;;;;;;;;5054992;28;20057;-43
2022/04/27 09:52:38;;;;;;;20.88;13.48;;;;;;;;;;5055130;28;20036;-44
2022/04/27 09:55:06;;;;;;;11.10;8.52;;;;;;;;;;5055388;28;20029;-43
2022/04/27 09:57:35;;;;;;;18.40;12.95;;;;;;;;;;5055489;28;20032;-44
2022/04/27 10:00:02;;;;;;;16.45;12.57;;;;;;;;;;5055021;28;20108;-44
2022/04/27 10:02:30;;;;;;;26.13;16.10;;;;;;;;;;5055086;28;20025;-44
2022/04/27 10:04:57;;;;;;;32.25;20.75;;;;;;;;;;5055244;28;20079;-43
2022/04/27 10:07:23;;;;;;;31.27;18.65;;;;;;;;;;5055001;28;20077;-43
2022/04/27 10:09:50;;;;;;;30.15;16.85;;;;;;;;;;5054869;28;20036;-43
2022/04/27 10:12:18;;;;;;;36.00;23.83;;;;;;;;;;5053895;28;20036;-43
2022/04/27 10:14:45;;;;;;;31.02;20.77;;;;;;;;;;5055071;28;20021;-42
2022/04/27 10:17:12;;;;;;;20.13;14.90;;;;;;;;;;5054896;28;20087;-44
2022/04/27 10:19:44;;;;;;;26.58;17.40;;;;;;;;;;5053487;28;20472;-43
2022/04/27 10:22:24;;;;;;;21.95;15.73;;;;;;;;;;5054981;28;20040;-42
2022/04/27 10:24:50;;;;;;;17.02;13.15;;;;;;;;;;5054650;28;20025;-44
2022/04/27 10:27:18;;;;;;;33.88;21.67;;;;;;;;;;5054857;28;20505;-44
2022/04/27 10:29:45;;;;;;;69.90;42.80;;;;;;;;;;5054556;28;20032;-42
2022/04/27 10:32:11;;;;;;;36.17;24.70;;;;;;;;;;5054247;28;20021;-43
2022/04/27 10:34:37;;;;;;;15.63;11.48;;;;;;;;;;5054343;28;20032;-44
2022/04/27 10:37:03;;;;;;;41.15;27.48;;;;;;;;;;5054391;28;20059;-44
2022/04/27 10:39:30;;;;;;;22.13;15.52;;;;;;;;;;5054376;28;20104;-45
2022/04/27 10:41:56;;;;;;;14.13;10.27;;;;;;;;;;5054381;28;20037;-43
2022/04/27 10:44:42;;;;;;;12.38;10.02;;;;;;;;;;5053365;28;20024;-43
2022/04/27 10:47:18;;;;;;;10.25;8.90;;;;;;;;;;5054210;28;20099;-43
2022/04/27 10:49:51;;;;;;;9.45;7.88;;;;;;;;;;5053868;28;20040;-44
2022/04/27 10:52:23;;;;;;;24.70;17.42;;;;;;;;;;5054380;28;20068;-44
2022/04/27 10:54:49;;;;;;;13.95;11.13;;;;;;;;;;5054164;28;20389;-44
2022/04/27 10:57:15;;;;;;;14.07;8.90;;;;;;;;;;5054034;28;20102;-43
2022/04/27 10:59:48;;;;;;;12.98;9.35;;;;;;;;;;5053876;28;20024;-43
2022/04/27 11:02:36;;;;;;;17.23;12.13;;;;;;;;;;5053988;28;20178;-44
2022/04/27 11:05:02;;;;;;;13.23;9.90;;;;;;;;;;5052500;28;20032;-44
2022/04/27 11:07:47;;;;;;;11.27;7.65;;;;;;;;;;5053965;28;20021;-44
2022/04/27 11:10:15;;;;;;;8.15;5.53;;;;;;;;;;5053748;28;20104;-45
2022/04/27 11:12:42;;;;;;;8.45;5.45;;;;;;;;;;5053960;28;20361;-43
2022/04/27 11:15:11;;;;;;;8.88;5.60;;;;;;;;;;5053887;28;20518;-44
2022/04/27 11:17:37;;;;;;;8.63;5.68;;;;;;;;;;5053687;28;20032;-45
2022/04/27 11:20:03;;;;;;;15.10;10.68;;;;;;;;;;5053676;28;20064;-45
2022/04/27 11:22:39;;;;;;;13.45;9.10;;;;;;;;;;5053548;28;20076;-45
2022/04/27 11:25:08;;;;;;;10.63;6.72;;;;;;;;;;5053642;28;20056;-45
2022/04/27 11:27:35;;;;;;;7.38;6.60;;;;;;;;;;5053650;28;20081;-44
2022/04/27 11:30:02;;;;;;;13.85;10.07;;;;;;;;;;5053368;28;20070;-45
2022/04/27 11:32:29;;;;;;;11.98;7.70;;;;;;;;;;5053440;28;20071;-45
2022/04/27 11:34:55;;;;;;;11.45;8.05;;;;;;;;;;5053586;28;20024;-45
2022/04/27 11:37:24;;;;;;;10.80;8.82;;;;;;;;;;5053307;28;20025;-44
2022/04/27 11:39:50;;;;;;;11.23;8.30;;;;;;;;;;5053437;28;20465;-43
2022/04/27 11:42:17;;;;;;;20.20;10.20;;;;;;;;;;5053359;28;20029;-44
2022/04/27 11:44:50;;;;;;;24.98;17.45;;;;;;;;;;5053267;28;20017;-44
2022/04/27 11:47:29;;;;;;;35.50;22.05;;;;;;;;;;5053381;28;20087;-44
2022/04/27 11:50:02;;;;;;;11.18;9.02;;;;;;;;;;5052852;28;20041;-44
2022/04/27 11:52:36;;;;;;;11.85;9.40;;;;;;;;;;5053439;28;20425;-45
2022/04/27 11:55:08;;;;;;;11.80;9.75;;;;;;;;;;5052824;28;20021;-44
2022/04/27 11:57:34;;;;;;;11.73;8.50;;;;;;;;;;5053538;28;20036;-45
2022/04/27 12:00:02;;;;;;;14.43;10.05;;;;;;;;;;5053192;28;20048;-44
2022/04/27 12:02:28;;;;;;;16.25;12.07;;;;;;;;;;5052965;28;20067;-45
2022/04/27 12:04:58;;;;;;;31.02;19.85;;;;;;;;;;5053089;28;20013;-43
2022/04/27 12:07:24;;;;;;;19.90;12.50;;;;;;;;;;5053244;28;20017;-43
2022/04/27 12:09:56;;;;;;;23.27;15.82;;;;;;;;;;5053172;28;20028;-44
2022/04/27 12:12:23;;;;;;;17.70;11.25;;;;;;;;;;5053170;28;20489;-44
2022/04/27 12:14:49;;;;;;;12.85;10.35;;;;;;;;;;5052893;28;20374;-44
2022/04/27 12:17:33;;;;;;;26.48;16.30;;;;;;;;;;5052936;28;20024;-44
2022/04/27 12:20:00;;;;;;;15.00;9.77;;;;;;;;;;5053081;28;20107;-44
2022/04/27 12:22:26;;;;;;;20.88;12.45;;;;;;;;;;5052966;28;20065;-47
2022/04/27 12:24:52;;;;;;;14.23;10.55;;;;;;;;;;5052839;28;20469;-43
2022/04/27 12:27:19;;;;;;;19.15;13.60;;;;;;;;;;5053004;28;20032;-43
2022/04/27 12:29:45;;;;;;;25.38;17.77;;;;;;;;;;5052818;28;20401;-46
2022/04/27 12:32:11;;;;;;;21.70;14.68;;;;;;;;;;5052847;28;20036;-45
2022/04/27 12:37:29;;;;;;;9.40;7.55;;;;;;;;;;5052859;28;20040;-45
2022/04/27 12:39:55;;;;;;;9.68;7.68;;;;;;;;;;5052873;28;20021;-44
2022/04/27 12:42:22;;;;;;;21.25;13.85;;;;;;;;;;5052575;28;20501;-43
2022/04/27 12:44:48;;;;;;;14.32;10.68;;;;;;;;;;5052818;28;20021;-43
2022/04/27 12:47:16;;;;;;;11.65;8.20;;;;;;;;;;5052794;28;20029;-45
2022/04/27 12:49:42;;;;;;;15.32;11.23;;;;;;;;;;5052698;28;20409;-44
2022/04/27 12:52:27;;;;;;;23.08;13.13;;;;;;;;;;5052857;28;20055;-45
2022/04/27 12:55:25;;;;;;;17.73;11.35;;;;;;;;;;5052552;28;20385;-44
2022/04/27 12:57:55;;;;;;;16.30;11.77;;;;;;;;;;5031039;28;20053;-45
2022/04/27 13:00:40;;;;;;;12.52;10.30;;;;;;;;;;5030724;28;20123;-44
2022/04/27 13:03:10;;;;;;;11.75;9.45;;;;;;;;;;5030308;28;20102;-44
2022/04/27 13:05:37;;;;;;;16.17;12.10;;;;;;;;;;5030524;28;20560;-44
2022/04/27 13:08:04;;;;;;;14.68;11.55;;;;;;;;;;5034034;28;20041;-45
2022/04/27 13:13:16;;;;;;;23.77;15.57;;;;;;;;;;5034457;28;20071;-44
2022/04/27 13:15:42;;;;;;;20.00;13.85;;;;;;;;;;5034061;28;20098;-43
2022/04/27 13:18:08;;;;;;;13.52;10.95;;;;;;;;;;5033924;28;20033;-44
2022/04/27 13:20:34;;;;;;;18.73;13.20;;;;;;;;;;5033884;28;20493;-44
2022/04/27 13:23:00;;;;;;;16.60;11.27;;;;;;;;;;5033847;28;20099;-45
2022/04/27 13:25:27;;;;;;;14.98;12.48;;;;;;;;;;5033752;28;20030;-44
2022/04/27 13:27:53;;;;;;;14.85;10.95;;;;;;;;;;5033888;28;20044;-41
2022/04/27 13:30:20;;;;;;;18.15;12.82;;;;;;;;;;5033953;28;20485;-44
2022/04/27 13:32:48;;;;;;;18.70;12.95;;;;;;;;;;5038615;28;20040;-43
2022/04/27 13:35:14;;;;;;;15.48;11.68;;;;;;;;;;5055632;28;20029;-43
2022/04/27 13:37:40;;;;;;;17.10;13.07;;;;;;;;;;5054521;28;20032;-43
2022/04/27 13:40:07;;;;;;;16.58;12.20;;;;;;;;;;5055948;28;20385;-44
2022/04/27 13:42:33;;;;;;;13.88;10.80;;;;;;;;;;5055026;28;20036;-44
2022/04/27 13:44:59;;;;;;;17.95;13.27;;;;;;;;;;5055576;28;20442;-43
2022/04/27 13:47:26;;;;;;;30.90;22.75;;;;;;;;;;5055204;28;20538;-43
2022/04/27 13:49:52;;;;;;;22.30;16.33;;;;;;;;;;5055138;28;20132;-43
2022/04/27 13:52:21;;;;;;;92.68;60.90;;;;;;;;;;5055490;28;20036;-43
2022/04/27 13:54:47;;;;;;;40.65;27.90;;;;;;;;;;5054145;28;20021;-44
2022/04/27 13:57:13;;;;;;;19.27;13.65;;;;;;;;;;5055362;28;20078;-44
2022/04/27 13:59:39;;;;;;;34.33;22.90;;;;;;;;;;5055288;28;20025;-43
2022/04/27 14:02:05;;;;;;;76.40;48.40;;;;;;;;;;5054935;28;20060;-44
2022/04/27 14:04:32;;;;;;;59.65;39.90;;;;;;;;;;5055042;28;20051;-44
2022/04/27 14:06:58;;;;;;;20.75;15.65;;;;;;;;;;5054512;28;20776;-43
2022/04/27 14:09:26;;;;;;;136.18;85.70;;;;;;;;;;5054378;28;20594;-44
2022/04/27 14:14:39;;;;;;;24.88;18.30;;;;;;;;;;5054807;28;20121;-44
2022/04/27 14:19:53;;;;;;;26.15;17.92;;;;;;;;;;5053023;28;20527;-44
2022/04/27 14:22:19;;;;;;;34.40;23.77;;;;;;;;;;5054132;28;20052;-44
2022/04/27 14:24:45;;;;;;;22.63;17.23;;;;;;;;;;5054233;28;20099;-44
2022/04/27 14:27:15;;;;;;;35.28;25.92;;;;;;;;;;5054301;28;20029;-44
2022/04/27 14:29:41;;;;;;;26.55;19.50;;;;;;;;;;5051572;28;20021;-43
2022/04/27 14:32:07;;;;;;;23.67;17.08;;;;;;;;;;5054019;28;20021;-43
2022/04/27 14:34:34;;;;;;;31.38;23.05;;;;;;;;;;5053894;28;20025;-43
2022/04/27 14:37:00;;;;;;;74.53;47.15;;;;;;;;;;5054468;28;20021;-43
2022/04/27 14:39:26;;;;;;;78.60;50.65;;;;;;;;;;5054392;28;20040;-44
2022/04/27 14:41:53;;;;;;;56.10;36.05;;;;;;;;;;5053091;28;20032;-42
2022/04/27 14:44:22;;;;;;;48.05;32.17;;;;;;;;;;5054251;28;20017;-45
2022/04/27 14:46:49;;;;;;;26.40;18.08;;;;;;;;;;5054332;28;20022;-41
2022/04/27 14:49:15;;;;;;;24.02;17.35;;;;;;;;;;5054115;28;20048;-52
2022/04/27 14:51:42;;;;;;;30.35;21.08;;;;;;;;;;5053605;28;20053;-45
2022/04/27 14:54:09;;;;;;;21.15;14.30;;;;;;;;;;5053620;28;20019;-43
2022/04/27 14:56:37;;;;;;;23.58;16.65;;;;;;;;;;5053654;28;20032;-43